Time;durP1;ratioP1;P1;durP2;ratioP2;P2;SDS_P1;SDS_P2;PMS_P1;PMS_P2;Temp;Humidity;BMP_temperature;BMP_pressure;BME280_temperature;BME280_humidity;BME280_pressure;Samples;Min_cycle;Max_cycle;Signal;HPM_P1;HPM_P2
2022/01/21 00:02:09;;;;;;;3.08;0.85;;;0.60;99.90;;;-1.25;83.96;101601.41;4920231;28;20034;-80
2022/01/21 00:04:35;;;;;;;8.73;1.20;;;0.60;99.90;;;-1.27;83.87;101605.69;4900722;28;20114;-82
2022/01/21 00:07:01;;;;;;;6.70;0.90;;;0.60;99.90;;;-1.28;83.63;101601.34;4895719;28;22698;-81
2022/01/21 00:09:29;;;;;;;12.60;0.98;;;0.60;99.90;;;-1.33;83.71;101608.16;4926930;28;20118;-79
2022/01/21 00:11:55;;;;;;;12.68;0.95;;;0.50;99.90;;;-1.36;84.29;101608.09;4872613;28;20043;-80
2022/01/21 00:14:21;;;;;;;10.23;0.70;;;0.50;99.90;;;-1.35;84.51;101612.44;4941613;28;20027;-79
2022/01/21 00:16:47;;;;;;;9.43;1.05;;;0.50;99.90;;;-1.31;84.20;101611.66;4922073;28;20027;-79
2022/01/21 00:19:23;;;;;;;5.43;1.08;;;0.50;99.90;;;-1.34;83.99;101607.31;4947914;28;20114;-82
2022/01/21 00:30:25;;;;;;;14.07;2.75;;;0.50;99.90;;;-1.32;83.87;101608.19;4860893;28;20050;-76
2022/01/21 00:32:52;;;;;;;5.00;0.75;;;0.60;99.90;;;-1.29;83.91;101622.88;4921172;28;20038;-79
2022/01/21 00:35:20;;;;;;;9.30;1.00;;;0.50;99.90;;;-1.32;83.75;101621.13;4919565;28;20411;-80
2022/01/21 00:37:50;;;;;;;7.55;0.70;;;0.50;99.90;;;-1.31;83.44;101615.09;4921654;28;20030;-76
2022/01/21 00:40:22;;;;;;;7.07;1.23;;;0.60;99.90;;;-1.26;83.56;101625.50;4922131;28;20039;-76
2022/01/21 00:43:07;;;;;;;5.85;1.10;;;0.50;99.90;;;-1.32;83.66;101630.56;4916308;28;20082;-75
2022/01/21 00:45:34;;;;;;;6.97;0.70;;;0.50;99.90;;;-1.28;83.66;101642.69;4923760;28;20500;-77
2022/01/21 00:48:00;;;;;;;6.03;1.00;;;1.10;99.90;;;-1.29;83.58;101636.66;4955256;28;20118;-76
2022/01/21 00:50:26;;;;;;;7.55;0.70;;;0.60;99.90;;;-1.27;83.60;101639.28;4938103;28;20078;-77
2022/01/21 00:52:52;;;;;;;9.55;1.30;;;0.60;99.90;;;-1.29;83.17;101631.50;4907871;28;20031;-76
2022/01/21 00:55:19;;;;;;;3.92;0.52;;;0.60;99.90;;;-1.26;83.44;101630.66;4910859;28;20062;-75
2022/01/21 00:57:44;;;;;;;2.25;0.70;;;0.60;99.90;;;-1.25;83.38;101629.84;4945597;28;20027;-76
2022/01/21 01:00:13;;;;;;;11.23;0.98;;;0.60;99.90;;;-1.30;83.18;101632.31;4892542;28;20505;-76
2022/01/21 01:02:40;;;;;;;9.13;1.27;;;0.60;99.90;;;-1.28;83.28;101632.34;4936685;28;20481;-77
2022/01/21 01:05:09;;;;;;;6.30;0.52;;;0.60;99.90;;;-1.30;83.32;101631.47;4949333;28;20123;-76
2022/01/21 01:07:35;;;;;;;5.82;0.60;;;0.50;99.90;;;-1.33;83.66;101629.69;4954569;28;20043;-76
2022/01/21 01:10:05;;;;;;;4.75;1.10;;;0.50;99.90;;;-1.34;83.58;101632.25;4900235;28;20032;-75
2022/01/21 01:20:54;;;;;;;10.35;0.93;;;0.60;99.90;;;-1.18;83.56;101623.91;4928019;28;20059;-75
2022/01/21 01:23:25;;;;;;;3.85;0.70;;;0.70;99.90;;;-1.14;83.43;101630.88;4955918;28;20737;-76
2022/01/21 01:28:36;;;;;;;4.20;1.20;;;0.60;99.90;;;-1.18;83.46;101630.81;4923106;28;20046;-77
2022/01/21 01:31:03;;;;;;;7.53;1.25;;;0.60;99.90;;;-1.18;83.85;101635.97;4948145;28;20038;-76
2022/01/21 01:33:36;;;;;;;9.77;1.20;;;0.70;99.90;;;-1.15;83.52;101634.28;4905525;28;20024;-77
2022/01/21 01:36:08;;;;;;;9.27;1.08;;;0.70;99.90;;;-1.13;83.53;101627.44;4938654;28;20107;-76
2022/01/21 01:41:12;;;;;;;8.45;1.42;;;0.70;99.90;;;-1.07;82.58;101637.88;4946027;28;20624;-76
2022/01/21 01:49:30;;;;;;;4.15;0.80;;;0.80;99.90;;;-1.01;82.57;101644.00;4950230;28;20055;-76
2022/01/21 01:51:59;;;;;;;5.57;0.90;;;0.80;99.90;;;-1.09;82.94;101649.03;4937499;28;20032;-75
2022/01/21 01:54:29;;;;;;;6.35;1.10;;;0.80;99.90;;;-1.11;82.88;101654.19;4922781;28;20039;-76
2022/01/21 01:56:58;;;;;;;3.40;0.68;;;0.70;99.90;;;-1.10;82.92;101661.09;4955735;28;20042;-76
2022/01/21 01:59:26;;;;;;;5.45;1.10;;;0.70;99.90;;;-1.09;82.72;101649.91;4936389;28;20493;-76
2022/01/21 02:02:09;;;;;;;5.85;0.90;;;0.70;99.90;;;-1.10;83.05;101649.88;4915548;28;20045;-76
2022/01/21 02:04:36;;;;;;;14.43;1.20;;;0.70;99.90;;;-1.08;83.25;101655.94;4950578;28;20028;-76
2022/01/21 02:07:03;;;;;;;4.75;0.55;;;0.80;99.90;;;-1.08;82.47;101659.41;4922389;28;20106;-75
2022/01/21 02:09:30;;;;;;;8.63;1.00;;;0.80;99.90;;;-1.07;82.28;101655.97;4934049;28;20511;-76
2022/01/21 02:11:56;;;;;;;3.80;0.70;;;0.80;99.90;;;-1.03;82.00;101654.31;4938515;28;20067;-76
2022/01/21 02:14:29;;;;;;;4.32;0.80;;;0.80;99.90;;;-0.98;82.06;101654.38;4925294;28;20035;-75
2022/01/21 02:22:05;;;;;;;3.58;0.68;;;0.90;99.90;;;-1.01;82.22;101668.13;4947257;28;20452;-77
2022/01/21 02:24:45;;;;;;;7.78;0.77;;;0.80;99.90;;;-1.00;81.88;101669.00;4914291;28;20056;-75
2022/01/21 02:27:12;;;;;;;6.80;0.82;;;0.80;99.90;;;-0.98;81.84;101677.66;4921985;28;20110;-76
2022/01/21 02:29:46;;;;;;;3.70;0.75;;;0.80;99.90;;;-0.98;81.96;101680.22;4930866;28;20019;-76
2022/01/21 02:32:13;;;;;;;5.25;0.95;;;0.80;99.90;;;-0.99;82.28;101686.22;4942143;28;20216;-76
2022/01/21 02:34:40;;;;;;;7.85;0.90;;;0.80;99.90;;;-1.04;82.30;101688.75;4950335;28;20049;-76
2022/01/21 02:37:09;;;;;;;7.32;1.23;;;0.80;99.90;;;-1.06;82.26;101695.59;4919247;28;20529;-76
2022/01/21 02:39:35;;;;;;;6.97;0.47;;;0.80;99.90;;;-1.09;82.69;101704.19;4924847;28;20043;-75
2022/01/21 02:42:01;;;;;;;6.38;0.60;;;0.80;99.90;;;-1.10;82.42;101706.72;4908296;28;20035;-76
2022/01/21 02:44:27;;;;;;;9.13;1.40;;;0.70;99.90;;;-1.13;82.96;101702.38;4938269;28;20463;-75
2022/01/21 02:46:59;;;;;;;5.20;1.02;;;0.70;99.90;;;-1.16;83.22;101706.66;4944362;28;20054;-76
2022/01/21 02:49:26;;;;;;;12.98;1.02;;;0.70;99.90;;;-1.13;83.52;101715.31;4951505;28;20571;-77
2022/01/21 02:51:55;;;;;;;12.93;1.63;;;0.70;99.90;;;-1.17;83.51;101718.69;4912823;28;20082;-76
2022/01/21 02:54:21;;;;;;;2.28;0.55;;;0.70;99.90;;;-1.18;83.38;101716.97;4913501;28;20095;-77
2022/01/21 02:56:48;;;;;;;1.55;0.57;;;0.70;99.90;;;-1.19;83.61;101707.44;4946271;28;20031;-76
2022/01/21 02:59:14;;;;;;;3.80;0.73;;;0.70;99.90;;;-1.22;84.07;101712.56;4915876;28;20061;-76
2022/01/21 03:01:42;;;;;;;4.45;0.70;;;0.60;99.90;;;-1.25;84.10;101717.72;4905508;28;20023;-76
2022/01/21 03:04:16;;;;;;;7.47;1.20;;;0.60;99.90;;;-1.28;84.45;101728.84;4951027;28;20046;-76
2022/01/21 03:06:42;;;;;;;5.30;0.93;;;0.60;99.90;;;-1.26;84.58;101723.69;4927385;28;21269;-76
2022/01/21 03:09:08;;;;;;;7.18;0.85;;;0.60;99.90;;;-1.28;84.89;101725.38;4921622;28;20094;-76
2022/01/21 03:11:35;;;;;;;10.40;0.90;;;0.60;99.90;;;-1.36;84.67;101724.38;4904152;28;20067;-76
2022/01/21 03:14:01;;;;;;;11.93;1.80;;;0.50;99.90;;;-1.36;84.72;101716.63;4898807;28;20023;-76
2022/01/21 03:16:27;;;;;;;4.28;0.90;;;0.50;99.90;;;-1.40;85.22;101723.47;4933491;28;20026;-76
2022/01/21 03:18:53;;;;;;;5.20;0.85;;;0.50;99.90;;;-1.42;85.36;101722.56;4931413;28;20086;-77
2022/01/21 03:21:20;;;;;;;6.68;1.10;;;0.40;99.90;;;-1.45;85.23;101717.31;4910785;28;20027;-76
2022/01/21 03:23:52;;;;;;;25.02;13.57;;;0.40;99.90;;;-1.49;85.49;101712.94;4943581;28;20110;-77
2022/01/21 03:26:22;;;;;;;12.93;0.98;;;0.40;99.90;;;-1.55;85.82;101716.28;4920435;28;20034;-76
2022/01/21 03:28:52;;;;;;;7.82;1.15;;;0.30;99.90;;;-1.61;86.14;101699.81;4923148;28;20043;-76
2022/01/21 03:31:18;;;;;;;6.50;0.75;;;0.30;99.90;;;-1.64;85.58;101705.78;4901242;28;20134;-76
2022/01/21 03:33:46;;;;;;;3.50;0.63;;;0.20;99.90;;;-1.66;86.29;101712.63;4954802;28;20106;-77
2022/01/21 03:36:12;;;;;;;6.10;1.10;;;0.20;99.90;;;-1.70;86.52;101708.25;4920828;28;20034;-76
2022/01/21 03:38:40;;;;;;;5.15;0.75;;;0.20;99.90;;;-1.75;86.64;101707.28;4927067;28;20031;-76
2022/01/21 03:41:07;;;;;;;3.92;0.50;;;0.10;99.90;;;-1.82;86.85;101700.25;4924398;28;20052;-76
2022/01/21 03:43:34;;;;;;;4.82;1.10;;;0.10;99.90;;;-1.81;86.93;101713.19;4925192;28;20032;-76
2022/01/21 03:46:01;;;;;;;9.52;1.17;;;0.10;99.90;;;-1.80;87.00;101703.75;4940975;28;20395;-76
2022/01/21 03:48:28;;;;;;;3.25;0.63;;;0.10;99.90;;;-1.81;86.81;101704.56;4925316;28;20038;-76
2022/01/21 03:50:54;;;;;;;2.45;0.45;;;0.10;99.90;;;-1.84;87.02;101709.69;4927715;28;20024;-76
2022/01/21 03:53:20;;;;;;;8.05;0.60;;;0.00;99.90;;;-1.91;86.91;101703.53;4946011;28;20134;-77
2022/01/21 03:55:47;;;;;;;13.27;1.10;;;0.00;99.90;;;-1.88;87.26;101708.75;4956424;28;20034;-76
2022/01/21 03:58:14;;;;;;;3.47;0.60;;;0.00;99.90;;;-1.92;87.30;101705.25;4956409;28;20507;-77
2022/01/21 04:00:48;;;;;;;6.10;0.85;;;0.00;99.90;;;-1.87;87.67;101713.94;4908457;28;20610;-77
2022/01/21 04:03:15;;;;;;;11.75;1.08;;;0.00;99.90;;;-1.87;87.59;101707.91;4924583;28;20040;-76
2022/01/21 04:05:41;;;;;;;9.00;0.98;;;0.00;99.90;;;-1.91;87.14;101704.38;4924502;28;20046;-76
2022/01/21 04:08:09;;;;;;;10.40;1.33;;;0.00;99.90;;;-1.92;87.81;101715.56;4915717;28;20038;-77
2022/01/21 04:10:38;;;;;;;4.03;0.95;;;0.00;99.90;;;-1.93;87.41;101712.94;4925086;28;20035;-76
2022/01/21 04:13:13;;;;;;;8.05;0.90;;;0.00;99.90;;;-1.95;87.68;101704.31;4924679;28;20040;-76
2022/01/21 04:15:42;;;;;;;1.65;0.65;;;-0.10;99.90;;;-2.00;87.29;101709.38;4947329;28;20035;-76
2022/01/21 04:18:08;;;;;;;5.35;0.98;;;-0.10;99.90;;;-2.01;87.75;101715.34;4908455;28;20108;-77
2022/01/21 04:20:35;;;;;;;16.08;1.50;;;-0.10;99.90;;;-1.99;87.53;101717.97;4944933;28;20118;-76
2022/01/21 04:23:01;;;;;;;6.80;0.75;;;-0.10;99.90;;;-2.06;87.68;101712.69;4922029;28;20035;-76
2022/01/21 04:25:27;;;;;;;9.18;1.17;;;-0.20;99.90;;;-2.08;87.87;101716.06;4953813;28;20036;-77
2022/01/21 04:27:53;;;;;;;11.35;0.82;;;-0.20;99.90;;;-2.11;88.16;101718.59;4952717;28;20047;-76
2022/01/21 04:30:19;;;;;;;13.18;1.00;;;-0.20;99.90;;;-2.11;88.14;101721.19;4924538;28;20094;-76
2022/01/21 04:32:44;;;;;;;3.85;0.57;;;-0.20;99.90;;;-2.15;88.27;101719.38;4954853;28;20079;-76
2022/01/21 04:35:12;;;;;;;7.65;1.25;;;-0.30;99.90;;;-2.18;88.32;101725.34;4922240;28;20042;-76
2022/01/21 04:37:44;;;;;;;2.05;0.50;;;-0.30;99.90;;;-2.21;88.80;101717.53;4946239;28;20036;-75
2022/01/21 04:40:15;;;;;;;4.22;0.80;;;-0.30;99.90;;;-2.20;89.00;101716.69;4936113;28;20392;-77
2022/01/21 04:48:10;;;;;;;14.23;1.95;;;-0.30;99.90;;;-2.21;89.15;101706.34;4949972;28;20528;-76
2022/01/21 04:50:51;;;;;;;9.05;0.70;;;-0.30;99.90;;;-2.21;88.79;101724.41;4924215;28;20043;-77
2022/01/21 04:53:17;;;;;;;13.35;0.90;;;-0.30;99.90;;;-2.15;88.65;101714.22;4952319;28;20182;-76
2022/01/21 04:55:43;;;;;;;6.75;0.90;;;-0.30;99.90;;;-2.11;88.51;101714.31;4915540;28;20118;-76
2022/01/21 04:58:09;;;;;;;9.70;1.20;;;-0.30;99.90;;;-2.11;88.14;101708.28;4920889;28;20024;-77
2022/01/21 05:00:35;;;;;;;13.48;0.95;;;-0.30;99.90;;;-2.12;88.12;101716.84;4924494;28;20031;-76
2022/01/21 05:03:01;;;;;;;4.80;0.75;;;-0.30;99.90;;;-2.11;87.75;101713.44;4899844;28;20102;-77
2022/01/21 05:05:27;;;;;;;6.25;0.80;;;-0.30;99.90;;;-2.08;87.91;101721.25;4948404;28;20508;-76
2022/01/21 05:07:54;;;;;;;6.35;0.82;;;-0.20;99.90;;;-2.04;87.60;101729.94;4945589;28;20508;-76
2022/01/21 05:10:23;;;;;;;5.57;1.00;;;-0.20;99.90;;;-2.03;87.78;101736.81;4917135;28;20387;-76
2022/01/21 05:12:49;;;;;;;9.52;1.17;;;-0.20;99.90;;;-1.99;87.27;101721.44;4928533;28;20050;-76
2022/01/21 05:15:31;;;;;;;9.23;1.20;;;-0.20;99.90;;;-2.03;87.34;101727.38;4941133;28;20034;-76
2022/01/21 05:17:57;;;;;;;9.30;1.33;;;-0.20;99.90;;;-2.10;87.47;101730.66;4930493;28;20031;-76
2022/01/21 05:20:23;;;;;;;11.30;1.35;;;-0.40;99.90;;;-2.22;87.68;101735.56;4893229;28;20035;-76
2022/01/21 05:22:49;;;;;;;12.10;1.50;;;-0.40;99.90;;;-2.34;87.88;101737.03;4946287;28;22297;-76
2022/01/21 05:25:19;;;;;;;8.52;1.60;;;-0.50;99.90;;;-2.39;88.72;101735.19;4898351;28;20066;-76
2022/01/21 05:27:50;;;;;;;10.18;1.30;;;-0.60;99.90;;;-2.46;88.40;101734.19;4910096;28;20760;-76
2022/01/21 05:30:17;;;;;;;7.57;1.05;;;-0.70;99.90;;;-2.54;88.97;101734.00;4937320;28;20047;-76
2022/01/21 05:32:43;;;;;;;9.05;1.08;;;-0.70;99.90;;;-2.58;89.67;101736.47;4947375;28;20452;-77
2022/01/21 05:35:10;;;;;;;10.57;1.42;;;-0.70;99.90;;;-2.61;90.24;101728.63;4954068;28;20050;-76
2022/01/21 05:37:37;;;;;;;10.40;1.27;;;-0.80;99.90;;;-2.59;90.35;101738.19;4913624;28;20391;-77
2022/01/21 05:40:07;;;;;;;11.75;1.38;;;-0.80;99.90;;;-2.60;90.70;101740.72;4934992;28;20039;-76
2022/01/21 05:42:35;;;;;;;7.18;1.25;;;-0.80;99.90;;;-2.59;91.20;101737.28;4952655;28;20035;-75
2022/01/21 05:47:30;;;;;;;7.13;0.60;;;-0.70;99.90;;;-2.52;91.57;101742.63;4913947;28;20035;-76
2022/01/21 05:49:57;;;;;;;8.60;1.20;;;-0.70;99.90;;;-2.50;91.02;101745.25;4926295;28;20031;-77
2022/01/21 05:52:33;;;;;;;12.45;1.52;;;-0.70;99.90;;;-2.46;91.50;101747.06;4953208;28;20111;-77
2022/01/21 05:54:59;;;;;;;8.15;0.73;;;-0.60;99.90;;;-2.44;91.97;101748.00;4936356;28;20016;-76
2022/01/21 05:57:25;;;;;;;12.10;1.33;;;-0.60;99.90;;;-2.45;91.23;101753.09;4922659;28;20103;-76
2022/01/21 05:59:51;;;;;;;10.27;1.52;;;-0.60;99.90;;;-2.48;91.18;101753.91;4931672;28;20503;-76
2022/01/21 06:02:17;;;;;;;7.45;1.17;;;-0.60;99.90;;;-2.49;90.84;101758.16;4922346;28;20024;-76
2022/01/21 06:04:46;;;;;;;11.02;0.93;;;-0.70;99.90;;;-2.52;90.73;101746.94;4954101;28;20035;-76
2022/01/21 06:07:12;;;;;;;20.95;1.70;;;-0.70;99.90;;;-2.56;91.07;101734.78;4905467;28;20378;-76
2022/01/21 06:09:38;;;;;;;8.52;1.15;;;-0.80;99.90;;;-2.62;91.54;101738.09;4938346;28;20035;-76
2022/01/21 06:12:08;;;;;;;6.97;1.17;;;-0.80;99.90;;;-2.67;91.42;101744.00;4928019;28;20035;-76
2022/01/21 06:14:34;;;;;;;5.82;0.90;;;-0.80;99.90;;;-2.69;91.91;101755.13;4922117;28;20041;-76
2022/01/21 06:16:59;;;;;;;11.57;1.13;;;-0.90;99.90;;;-2.75;92.37;101744.66;4918443;28;20119;-76
2022/01/21 06:19:25;;;;;;;15.32;1.40;;;-0.70;99.90;;;-2.74;92.39;101761.03;4919375;28;20019;-76
2022/01/21 06:21:51;;;;;;;6.35;1.00;;;-0.90;99.90;;;-2.77;92.37;101763.50;4915763;28;20468;-76
2022/01/21 06:24:17;;;;;;;10.07;1.45;;;-0.90;99.90;;;-2.81;92.69;101752.25;4912108;28;20039;-77
2022/01/21 06:26:44;;;;;;;11.88;1.30;;;-1.00;99.90;;;-2.80;92.98;101759.16;4955077;28;20689;-76
2022/01/21 06:29:10;;;;;;;7.85;1.10;;;-1.00;99.90;;;-2.82;92.61;101752.22;4921300;28;20039;-78
2022/01/21 06:31:36;;;;;;;7.55;1.17;;;-0.90;99.90;;;-2.78;93.00;101761.78;4920863;28;20563;-76
2022/01/21 06:34:03;;;;;;;11.00;1.60;;;-1.00;99.90;;;-2.81;92.75;101749.66;4954891;28;20107;-76
2022/01/21 06:36:29;;;;;;;7.00;1.10;;;-1.00;99.90;;;-2.80;93.16;101764.31;4921641;28;20484;-76
2022/01/21 06:38:55;;;;;;;7.43;1.38;;;-1.00;99.90;;;-2.80;92.99;101763.44;4936324;28;20041;-75
2022/01/21 06:41:22;;;;;;;11.32;1.25;;;-1.00;99.90;;;-2.83;93.20;101758.19;4933742;28;20032;-76
2022/01/21 06:43:48;;;;;;;6.10;1.48;;;-1.00;99.90;;;-2.84;93.04;101764.19;4952826;28;20114;-76
2022/01/21 06:46:14;;;;;;;4.85;0.80;;;-1.00;99.90;;;-2.86;92.62;101761.56;4938107;28;20086;-76
2022/01/21 06:48:41;;;;;;;8.10;1.38;;;-1.10;99.90;;;-2.89;93.27;101759.81;4945157;28;20062;-76
2022/01/21 06:51:07;;;;;;;11.65;1.10;;;-1.00;99.90;;;-2.87;92.91;101770.16;4907853;28;20039;-76
2022/01/21 06:53:33;;;;;;;11.98;1.42;;;-1.10;99.90;;;-2.88;93.09;101777.00;4910961;28;20031;-76
2022/01/21 06:55:59;;;;;;;8.15;1.02;;;-1.10;99.90;;;-2.90;93.00;101773.50;4934212;28;20023;-76
2022/01/21 06:58:25;;;;;;;11.40;1.25;;;-1.10;99.90;;;-2.89;92.97;101777.84;4919110;28;20171;-76
2022/01/21 07:00:51;;;;;;;10.98;1.65;;;-1.10;99.90;;;-2.90;92.83;101783.81;4887860;28;20034;-76
2022/01/21 07:03:17;;;;;;;6.22;1.02;;;-1.10;99.90;;;-2.91;92.87;101786.38;4897030;28;20489;-76
2022/01/21 07:05:46;;;;;;;9.43;1.08;;;-0.60;99.90;;;-2.93;93.25;101777.72;4941676;28;20027;-76
2022/01/21 07:08:15;;;;;;;14.25;1.30;;;-1.10;99.90;;;-2.94;93.48;101778.53;4965008;28;20095;-76
2022/01/21 07:10:43;;;;;;;10.13;1.25;;;-1.10;99.90;;;-2.93;94.24;101777.72;4922566;28;20524;-76
2022/01/21 07:13:10;;;;;;;12.50;1.50;;;-1.10;99.90;;;-2.90;94.49;101778.66;4914667;28;20035;-76
2022/01/21 07:15:38;;;;;;;13.82;1.48;;;-1.10;99.90;;;-2.85;94.08;101785.63;4938509;28;20515;-76
2022/01/21 07:18:04;;;;;;;7.25;1.20;;;-1.10;99.90;;;-2.84;94.74;101789.97;4930281;28;20047;-76
2022/01/21 07:20:30;;;;;;;11.75;1.55;;;-1.10;99.90;;;-2.83;94.74;101783.97;4912812;28;20097;-76
2022/01/21 07:22:56;;;;;;;8.40;1.67;;;-1.10;99.90;;;-2.82;94.89;101778.88;4950039;28;20041;-76
2022/01/21 07:25:22;;;;;;;7.38;1.52;;;-1.10;99.90;;;-2.80;95.36;101776.34;4919862;28;20040;-76
2022/01/21 07:27:48;;;;;;;16.98;2.00;;;-1.10;99.90;;;-2.79;95.42;101788.38;4943654;28;20039;-76
2022/01/21 07:30:15;;;;;;;10.23;1.50;;;-1.00;99.90;;;-2.76;96.36;101794.50;4921767;28;20024;-77
2022/01/21 07:32:43;;;;;;;8.27;1.40;;;-1.00;99.90;;;-2.70;96.28;101799.81;4947090;28;20388;-76
2022/01/21 07:35:11;;;;;;;12.73;1.38;;;-1.00;99.90;;;-2.64;96.75;101798.19;4924566;28;20565;-76
2022/01/21 07:37:39;;;;;;;9.68;1.10;;;-0.90;99.90;;;-2.59;96.61;101800.06;4934399;28;20488;-76
2022/01/21 07:40:06;;;;;;;14.48;1.70;;;-0.90;99.90;;;-2.43;96.30;101803.88;4928731;28;20035;-76
2022/01/21 07:42:35;;;;;;;14.38;1.35;;;-0.80;99.90;;;-2.32;96.34;101807.59;4918054;28;20349;-76
2022/01/21 07:45:01;;;;;;;15.38;1.40;;;-0.70;99.90;;;-2.17;96.66;101807.06;4920010;28;20039;-77
2022/01/21 07:47:27;;;;;;;9.07;1.40;;;;;;;-2.04;96.13;101803.06;4913969;28;20090;-76
2022/01/21 07:49:53;;;;;;;9.13;1.95;;;-0.60;99.90;;;-2.04;95.56;101812.53;4923453;28;20027;-76
2022/01/21 07:52:19;;;;;;;11.88;1.50;;;-0.50;99.90;;;-2.12;95.65;101800.28;4918715;28;20404;-76
2022/01/21 07:54:45;;;;;;;20.15;1.48;;;-0.50;99.90;;;-2.10;95.54;101814.09;4919512;28;20023;-76
2022/01/21 07:57:12;;;;;;;16.48;1.60;;;-0.50;99.90;;;-2.11;95.39;101807.22;4921608;28;20035;-76
2022/01/21 07:59:38;;;;;;;12.13;1.55;;;-0.50;99.90;;;-2.12;95.72;101810.63;4950541;28;20040;-76
2022/01/21 08:02:05;;;;;;;9.18;1.20;;;-0.50;99.90;;;-2.08;95.88;101806.41;4912824;28;20039;-76
2022/01/21 08:04:32;;;;;;;17.95;1.90;;;-0.40;99.90;;;-2.04;95.85;101804.78;4912596;28;20559;-76
2022/01/21 08:06:57;;;;;;;10.55;1.63;;;-0.40;99.90;;;-2.03;96.00;101807.41;4926493;28;20043;-76
2022/01/21 08:09:25;;;;;;;12.40;1.63;;;-0.40;99.90;;;-2.00;96.05;101804.88;4937935;28;20055;-76
2022/01/21 08:11:55;;;;;;;12.27;1.88;;;-0.40;99.90;;;-1.97;96.72;101801.47;4919183;28;20074;-76
2022/01/21 08:14:22;;;;;;;8.27;1.58;;;-0.40;99.90;;;-1.91;96.84;101799.03;4915728;28;20198;-76
2022/01/21 08:16:50;;;;;;;8.65;1.80;;;-0.30;99.90;;;-1.88;96.54;101791.34;4922079;28;20074;-76
2022/01/21 08:19:16;;;;;;;20.02;1.85;;;-0.30;99.90;;;-1.81;96.89;101789.75;4955142;28;20114;-76
2022/01/21 08:21:42;;;;;;;16.77;2.15;;;-0.20;99.90;;;-1.76;96.56;101799.38;4910850;28;20023;-76
2022/01/21 08:24:09;;;;;;;10.25;1.85;;;-0.20;99.90;;;-1.70;96.87;101801.22;4924866;28;25073;-76
2022/01/21 08:26:37;;;;;;;11.90;2.00;;;-0.10;99.90;;;-1.52;97.29;101809.31;4945697;28;20046;-76
2022/01/21 08:29:06;;;;;;;15.00;1.90;;;0.00;99.90;;;-1.25;96.83;101805.56;4939461;28;20404;-76
2022/01/21 08:31:34;;;;;;;7.97;1.05;;;0.20;99.90;;;-1.09;96.39;101802.41;4939793;28;20488;-76
2022/01/21 08:34:00;;;;;;;7.22;1.00;;;0.40;99.90;;;-0.96;96.29;101803.50;4930734;28;20521;-76
2022/01/21 08:36:27;;;;;;;12.13;1.38;;;0.50;99.90;;;-0.94;95.97;101800.97;4926403;28;20024;-76
2022/01/21 08:38:57;;;;;;;10.60;1.30;;;0.60;99.90;;;-0.87;95.63;101810.56;4955479;28;20070;-77
2022/01/21 08:41:23;;;;;;;3.28;0.55;;;0.70;99.90;;;-0.80;94.81;101809.81;4951232;28;20511;-76
2022/01/21 08:43:49;;;;;;;69.40;25.38;;;0.80;99.90;;;-0.72;94.43;101812.53;4923441;28;20043;-76
2022/01/21 08:46:15;;;;;;;5.15;0.65;;;0.90;99.90;;;-0.65;93.21;101811.78;4941593;28;20045;-76
2022/01/21 08:48:41;;;;;;;5.88;0.93;;;0.90;99.90;;;-0.56;92.62;101818.84;4921375;28;20082;-76
2022/01/21 08:51:10;;;;;;;7.35;1.10;;;1.00;99.90;;;-0.53;92.06;101812.00;4947826;28;20028;-76
2022/01/21 08:53:38;;;;;;;10.35;1.25;;;1.00;99.90;;;-0.45;91.32;101820.78;4899917;28;20154;-76
2022/01/21 08:56:14;;;;;;;3.88;1.10;;;1.10;99.90;;;-0.31;91.01;101813.22;4942727;28;20038;-77
2022/01/21 08:58:41;;;;;;;;;;;1.10;99.90;;;-0.19;89.93;101816.84;4939873;28;20031;-77
2022/01/21 09:01:09;;;;;;;6.15;1.05;;;1.40;99.90;;;-0.11;90.19;101816.13;4922337;28;19915;-77
2022/01/21 09:03:40;;;;;;;3.58;0.73;;;1.50;99.90;;;-0.10;90.14;101811.81;4922405;28;20050;-76
2022/01/21 09:06:11;;;;;;;4.35;1.10;;;1.50;99.90;;;-0.07;89.61;101819.63;4940302;28;20447;-76
2022/01/21 09:08:40;;;;;;;11.48;1.75;;;1.50;99.90;;;-0.08;89.59;101815.31;4917118;28;20046;-77
2022/01/21 09:11:07;;;;;;;3.45;0.90;;;1.50;99.90;;;-0.10;89.13;101820.44;4912059;28;20269;-76
2022/01/21 09:13:39;;;;;;;4.25;0.90;;;1.60;99.90;;;-0.02;88.69;101824.03;4932835;28;20069;-77
2022/01/21 09:16:06;;;;;;;9.05;1.13;;;1.60;99.90;;;0.11;88.69;101826.78;4924079;28;20030;-77
2022/01/21 09:18:46;;;;;;;17.15;2.00;;;1.70;99.90;;;0.29;87.72;101836.53;4928887;28;20047;-76
2022/01/21 09:21:14;;;;;;;8.63;1.10;;;1.80;99.90;;;0.42;87.19;101830.66;4941723;28;21576;-77
2022/01/21 09:23:43;;;;;;;3.63;0.73;;;1.90;99.90;;;0.52;86.57;101834.22;4946338;28;20088;-77
2022/01/21 09:26:12;;;;;;;2.03;0.47;;;2.00;99.90;;;0.53;85.94;101816.09;4950068;28;20040;-77
2022/01/21 09:28:38;;;;;;;6.03;0.93;;;2.00;99.90;;;0.50;85.67;101830.78;4947166;28;20094;-76
2022/01/21 09:31:07;;;;;;;2.83;0.50;;;2.10;99.90;;;0.46;85.60;101829.84;4907739;28;20027;-77
2022/01/21 09:33:33;;;;;;;6.05;1.10;;;2.10;99.90;;;0.50;85.37;101826.44;4938301;28;20043;-74
2022/01/21 09:35:59;;;;;;;4.10;0.65;;;2.20;99.90;;;0.67;84.74;101841.31;4945709;28;20031;-77
2022/01/21 09:38:26;;;;;;;4.07;0.65;;;2.20;99.90;;;0.79;84.16;101833.69;4955353;28;20095;-76
2022/01/21 09:40:56;;;;;;;3.45;0.63;;;2.30;99.90;;;0.93;83.38;101839.03;4905318;28;20066;-77
2022/01/21 09:43:23;;;;;;;2.75;0.65;;;2.40;99.90;;;0.99;83.00;101847.78;4942518;28;20563;-77
2022/01/21 09:45:54;;;;;;;7.78;0.77;;;2.50;99.90;;;1.00;82.66;101849.50;4924108;28;20028;-77
2022/01/21 09:48:25;;;;;;;3.35;0.60;;;2.50;99.90;;;0.99;82.73;101847.78;4923187;28;20055;-76
2022/01/21 09:51:02;;;;;;;6.70;0.93;;;2.50;99.90;;;1.00;82.73;101839.13;4939115;28;20531;-77
2022/01/21 09:53:35;;;;;;;7.72;1.10;;;2.60;99.90;;;1.00;82.98;101838.25;4926852;28;20028;-77
2022/01/21 09:56:09;;;;;;;7.35;1.08;;;2.60;99.90;;;0.97;82.70;101840.78;4922517;28;20032;-76
2022/01/21 09:58:45;;;;;;;3.97;1.05;;;2.60;99.90;;;0.98;82.52;101839.97;4915535;28;20372;-76
2022/01/21 10:01:20;;;;;;;5.82;0.90;;;2.60;99.90;;;1.01;82.23;101853.81;4922389;28;20032;-76
2022/01/21 10:03:48;;;;;;;3.00;0.60;;;2.60;99.90;;;0.98;81.77;101856.38;4927689;28;20228;-76
2022/01/21 10:06:15;;;;;;;7.13;1.17;;;2.60;99.90;;;0.94;81.36;101861.53;4919684;28;20047;-77
2022/01/21 10:08:41;;;;;;;5.72;0.98;;;2.50;99.90;;;0.88;80.98;101859.72;4904820;28;20051;-76
2022/01/21 10:11:12;;;;;;;10.63;0.95;;;2.50;99.90;;;0.76;80.51;101857.88;4936590;28;20054;-76
2022/01/21 10:13:49;;;;;;;4.60;0.98;;;2.40;99.90;;;0.64;79.97;101860.31;4923516;28;20107;-76
2022/01/21 10:16:21;;;;;;;3.63;0.82;;;2.30;99.90;;;0.60;79.85;101868.88;4922170;28;20034;-75
2022/01/21 10:19:08;;;;;;;7.72;0.77;;;2.30;99.90;;;0.68;80.16;101863.81;4922749;28;20036;-77
2022/01/21 10:21:39;;;;;;;;;;;2.40;99.90;;;0.79;80.42;101860.47;4883612;28;20122;-75
2022/01/21 10:24:16;;;;;;;5.80;0.57;;;2.50;99.90;;;0.93;80.23;101855.47;4912132;28;19969;-76
2022/01/21 10:26:57;;;;;;;5.00;0.73;;;2.50;99.90;;;1.02;80.53;101881.50;4920495;28;20046;-76
2022/01/21 10:29:36;;;;;;;4.45;0.95;;;2.60;99.90;;;1.08;80.04;101872.03;4913938;28;20098;-76
2022/01/21 10:32:07;;;;;;;5.18;0.70;;;2.70;99.90;;;1.13;79.33;101876.44;4908356;28;20028;-77
2022/01/21 10:34:43;;;;;;;1.35;0.35;;;2.70;99.90;;;1.21;79.24;101879.13;4925911;28;20027;-75
2022/01/21 10:37:26;;;;;;;9.02;0.82;;;2.80;99.90;;;1.27;79.62;101883.50;4946271;28;20032;-77
2022/01/21 10:40:09;;;;;;;4.55;0.50;;;2.80;99.90;;;1.27;79.51;101884.34;4919801;28;20020;-76
2022/01/21 10:42:39;;;;;;;5.35;1.10;;;2.90;99.90;;;1.28;79.26;101886.09;4910492;28;20477;-77
2022/01/21 10:45:09;;;;;;;3.95;0.80;;;2.90;99.90;;;1.26;79.56;101895.59;4937442;28;20039;-77
2022/01/21 10:48:02;;;;;;;4.93;0.82;;;2.90;99.90;;;1.26;80.18;101890.41;4934477;28;20040;-76
2022/01/21 10:50:34;;;;;;;7.10;0.85;;;2.90;99.90;;;1.30;80.43;101888.72;4915853;28;20023;-75
2022/01/21 10:53:02;;;;;;;4.35;1.20;;;2.90;99.90;;;1.33;80.38;101900.00;4921033;28;20031;-77
2022/01/21 10:55:37;;;;;;;3.58;0.50;;;3.00;99.90;;;1.38;81.23;101892.25;4945466;28;20050;-76
2022/01/21 10:58:18;;;;;;;2.87;0.80;;;2.90;99.90;;;1.31;80.17;101875.75;4923596;28;20019;-75
2022/01/21 11:01:12;;;;;;;3.63;0.98;;;3.00;99.90;;;1.35;80.45;101881.84;4917607;28;20110;-77
2022/01/21 11:03:58;;;;;;;5.55;1.33;;;3.00;99.90;;;1.36;80.46;101893.94;4914830;28;20024;-75